sensor_id;sensor_type;location;lat;lon;timestamp;temperature;humidity
2439;DHT22;14509;47.992;7.848;2023-05-07T00:00:28;18.30;57.60
2439;DHT22;14509;47.992;7.848;2023-05-07T00:02:30;18.30;57.50
2439;DHT22;14509;47.992;7.848;2023-05-07T00:04:52;18.40;57.50
2439;DHT22;14509;47.992;7.848;2023-05-07T00:06:54;18.40;57.40
2439;DHT22;14509;47.992;7.848;2023-05-07T00:08:57;18.80;57.80
2439;DHT22;14509;47.992;7.848;2023-05-07T00:10:59;18.40;57.40
2439;DHT22;14509;47.992;7.848;2023-05-07T00:13:01;18.30;57.40
2439;DHT22;14509;47.992;7.848;2023-05-07T00:15:04;18.20;57.50
2439;DHT22;14509;47.992;7.848;2023-05-07T00:17:07;18.20;57.80
2439;DHT22;14509;47.992;7.848;2023-05-07T00:19:09;18.20;57.60
2439;DHT22;14509;47.992;7.848;2023-05-07T00:21:14;18.30;57.70
2439;DHT22;14509;47.992;7.848;2023-05-07T00:23:16;18.10;57.70
2439;DHT22;14509;47.992;7.848;2023-05-07T00:25:18;18.10;57.60
2439;DHT22;14509;47.992;7.848;2023-05-07T00:27:21;18.30;57.70
2439;DHT22;14509;47.992;7.848;2023-05-07T00:29:23;18.00;57.40
2439;DHT22;14509;47.992;7.848;2023-05-07T00:31:25;18.00;57.40
2439;DHT22;14509;47.992;7.848;2023-05-07T00:33:27;18.00;57.50
2439;DHT22;14509;47.992;7.848;2023-05-07T00:35:29;18.00;57.50
2439;DHT22;14509;47.992;7.848;2023-05-07T00:37:32;18.00;57.40
2439;DHT22;14509;47.992;7.848;2023-05-07T00:39:34;18.00;57.30
2439;DHT22;14509;47.992;7.848;2023-05-07T00:41:37;18.00;57.40
2439;DHT22;14509;47.992;7.848;2023-05-07T00:43:39;18.00;57.40
2439;DHT22;14509;47.992;7.848;2023-05-07T00:45:41;18.00;57.30
2439;DHT22;14509;47.992;7.848;2023-05-07T00:47:43;18.00;57.30
2439;DHT22;14509;47.992;7.848;2023-05-07T00:49:45;18.00;57.40
2439;DHT22;14509;47.992;7.848;2023-05-07T00:51:47;18.00;57.50
2439;DHT22;14509;47.992;7.848;2023-05-07T00:53:51;17.90;57.50
2439;DHT22;14509;47.992;7.848;2023-05-07T00:55:53;17.90;57.50
2439;DHT22;14509;47.992;7.848;2023-05-07T00:57:55;17.80;57.60
2439;DHT22;14509;47.992;7.848;2023-05-07T00:59:57;17.80;57.70
2439;DHT22;14509;47.992;7.848;2023-05-07T01:01:59;18.20;58.10
2439;DHT22;14509;47.992;7.848;2023-05-07T01:04:02;17.80;57.80
2439;DHT22;14509;47.992;7.848;2023-05-07T01:06:05;17.80;57.80
2439;DHT22;14509;47.992;7.848;2023-05-07T01:08:08;17.90;58.10
2439;DHT22;14509;47.992;7.848;2023-05-07T01:10:13;17.90;57.80
2439;DHT22;14509;47.992;7.848;2023-05-07T01:12:15;17.90;57.80
2439;DHT22;14509;47.992;7.848;2023-05-07T01:14:18;18.00;57.70
2439;DHT22;14509;47.992;7.848;2023-05-07T01:16:21;17.80;57.70
2439;DHT22;14509;47.992;7.848;2023-05-07T01:18:23;17.80;57.60
2439;DHT22;14509;47.992;7.848;2023-05-07T01:20:27;17.80;58.10
2439;DHT22;14509;47.992;7.848;2023-05-07T01:22:33;18.00;57.80
2439;DHT22;14509;47.992;7.848;2023-05-07T01:24:36;17.80;57.70
2439;DHT22;14509;47.992;7.848;2023-05-07T01:26:39;17.70;57.70
2439;DHT22;14509;47.992;7.848;2023-05-07T01:28:41;17.70;57.70
2439;DHT22;14509;47.992;7.848;2023-05-07T01:30:45;17.70;57.70
2439;DHT22;14509;47.992;7.848;2023-05-07T01:32:53;17.70;57.80
2439;DHT22;14509;47.992;7.848;2023-05-07T01:34:57;17.70;58.00
2439;DHT22;14509;47.992;7.848;2023-05-07T01:37:01;17.90;58.80
2439;DHT22;14509;47.992;7.848;2023-05-07T01:39:05;17.70;58.30
2439;DHT22;14509;47.992;7.848;2023-05-07T01:41:07;17.70;58.30
2439;DHT22;14509;47.992;7.848;2023-05-07T01:43:10;18.30;58.80
2439;DHT22;14509;47.992;7.848;2023-05-07T01:45:13;17.70;58.40
2439;DHT22;14509;47.992;7.848;2023-05-07T01:47:16;17.60;58.30
2439;DHT22;14509;47.992;7.848;2023-05-07T01:49:18;17.60;58.30
2439;DHT22;14509;47.992;7.848;2023-05-07T01:51:21;17.60;58.40
2439;DHT22;14509;47.992;7.848;2023-05-07T01:53:23;17.50;58.40
2439;DHT22;14509;47.992;7.848;2023-05-07T01:55:26;17.50;58.50
2439;DHT22;14509;47.992;7.848;2023-05-07T01:57:29;17.50;58.50
2439;DHT22;14509;47.992;7.848;2023-05-07T01:59:31;17.40;58.40
2439;DHT22;14509;47.992;7.848;2023-05-07T02:01:33;17.50;58.50
2439;DHT22;14509;47.992;7.848;2023-05-07T02:03:35;17.40;58.50
2439;DHT22;14509;47.992;7.848;2023-05-07T02:05:44;17.50;58.80
2439;DHT22;14509;47.992;7.848;2023-05-07T02:07:56;17.30;58.70
2439;DHT22;14509;47.992;7.848;2023-05-07T02:10:01;17.20;58.70
2439;DHT22;14509;47.992;7.848;2023-05-07T02:12:05;17.20;58.80
2439;DHT22;14509;47.992;7.848;2023-05-07T02:14:07;17.20;58.80
2439;DHT22;14509;47.992;7.848;2023-05-07T02:16:09;17.20;58.70
2439;DHT22;14509;47.992;7.848;2023-05-07T02:18:12;17.30;58.80
2439;DHT22;14509;47.992;7.848;2023-05-07T02:20:15;17.30;58.80
2439;DHT22;14509;47.992;7.848;2023-05-07T02:22:17;17.30;58.90
2439;DHT22;14509;47.992;7.848;2023-05-07T02:24:19;17.20;58.90
2439;DHT22;14509;47.992;7.848;2023-05-07T02:26:21;17.20;58.80
2439;DHT22;14509;47.992;7.848;2023-05-07T02:28:25;17.30;58.80
2439;DHT22;14509;47.992;7.848;2023-05-07T02:30:34;17.80;59.20
2439;DHT22;14509;47.992;7.848;2023-05-07T02:32:36;17.20;58.60
2439;DHT22;14509;47.992;7.848;2023-05-07T02:34:38;17.30;58.70
2439;DHT22;14509;47.992;7.848;2023-05-07T02:36:40;17.20;58.80
2439;DHT22;14509;47.992;7.848;2023-05-07T02:38:46;17.20;58.90
2439;DHT22;14509;47.992;7.848;2023-05-07T02:40:48;17.50;59.10
2439;DHT22;14509;47.992;7.848;2023-05-07T02:42:51;17.20;58.90
2439;DHT22;14509;47.992;7.848;2023-05-07T02:44:54;17.20;58.90
2439;DHT22;14509;47.992;7.848;2023-05-07T02:46:56;17.20;58.90
2439;DHT22;14509;47.992;7.848;2023-05-07T02:48:59;17.20;58.90
2439;DHT22;14509;47.992;7.848;2023-05-07T02:51:01;17.20;58.90
2439;DHT22;14509;47.992;7.848;2023-05-07T02:53:04;17.20;58.90
2439;DHT22;14509;47.992;7.848;2023-05-07T02:55:07;17.20;58.80
2439;DHT22;14509;47.992;7.848;2023-05-07T02:57:09;17.20;58.90
2439;DHT22;14509;47.992;7.848;2023-05-07T02:59:11;17.20;58.90
2439;DHT22;14509;47.992;7.848;2023-05-07T03:01:17;17.20;59.00
2439;DHT22;14509;47.992;7.848;2023-05-07T03:03:26;17.10;58.90
2439;DHT22;14509;47.992;7.848;2023-05-07T03:05:28;17.40;59.20
2439;DHT22;14509;47.992;7.848;2023-05-07T03:07:30;17.20;59.00
2439;DHT22;14509;47.992;7.848;2023-05-07T03:09:32;17.10;58.90
2439;DHT22;14509;47.992;7.848;2023-05-07T03:11:34;17.10;59.00
2439;DHT22;14509;47.992;7.848;2023-05-07T03:13:37;17.10;59.20
2439;DHT22;14509;47.992;7.848;2023-05-07T03:15:39;17.20;59.40
2439;DHT22;14509;47.992;7.848;2023-05-07T03:17:42;17.00;59.30
2439;DHT22;14509;47.992;7.848;2023-05-07T03:19:44;17.00;59.30
2439;DHT22;14509;47.992;7.848;2023-05-07T03:21:46;17.00;59.30
2439;DHT22;14509;47.992;7.848;2023-05-07T03:23:48;17.00;59.90
2439;DHT22;14509;47.992;7.848;2023-05-07T03:25:50;17.20;59.60
2439;DHT22;14509;47.992;7.848;2023-05-07T03:27:52;17.00;59.40
2439;DHT22;14509;47.992;7.848;2023-05-07T03:29:58;17.00;59.50
2439;DHT22;14509;47.992;7.848;2023-05-07T03:32:00;16.90;59.60
2439;DHT22;14509;47.992;7.848;2023-05-07T03:34:04;16.90;59.70
2439;DHT22;14509;47.992;7.848;2023-05-07T03:36:06;16.90;59.70
2439;DHT22;14509;47.992;7.848;2023-05-07T03:51:54;16.90;59.80
2439;DHT22;14509;47.992;7.848;2023-05-07T03:53:57;16.90;60.00
2439;DHT22;14509;47.992;7.848;2023-05-07T03:56:01;16.80;59.80
2439;DHT22;14509;47.992;7.848;2023-05-07T03:58:07;16.80;59.90
2439;DHT22;14509;47.992;7.848;2023-05-07T04:00:10;16.80;59.90
2439;DHT22;14509;47.992;7.848;2023-05-07T04:02:21;16.80;60.00
2439;DHT22;14509;47.992;7.848;2023-05-07T04:04:23;16.90;59.90
2439;DHT22;14509;47.992;7.848;2023-05-07T04:06:25;16.80;59.80
2439;DHT22;14509;47.992;7.848;2023-05-07T04:08:29;16.90;60.00
2439;DHT22;14509;47.992;7.848;2023-05-07T04:10:32;16.80;59.90
2439;DHT22;14509;47.992;7.848;2023-05-07T04:12:38;17.00;60.20
2439;DHT22;14509;47.992;7.848;2023-05-07T04:14:41;16.80;60.00
2439;DHT22;14509;47.992;7.848;2023-05-07T04:16:44;17.30;60.50
2439;DHT22;14509;47.992;7.848;2023-05-07T04:18:46;17.00;60.20
2439;DHT22;14509;47.992;7.848;2023-05-07T04:20:48;16.90;60.20
2439;DHT22;14509;47.992;7.848;2023-05-07T04:22:51;16.90;60.40
2439;DHT22;14509;47.992;7.848;2023-05-07T04:24:54;16.90;60.40
2439;DHT22;14509;47.992;7.848;2023-05-07T04:26:57;16.90;60.10
2439;DHT22;14509;47.992;7.848;2023-05-07T04:29:00;17.00;60.50
2439;DHT22;14509;47.992;7.848;2023-05-07T04:31:07;17.30;60.60
2439;DHT22;14509;47.992;7.848;2023-05-07T04:33:11;17.30;60.40
2439;DHT22;14509;47.992;7.848;2023-05-07T04:35:15;17.20;60.00
2439;DHT22;14509;47.992;7.848;2023-05-07T04:37:18;17.30;59.80
2439;DHT22;14509;47.992;7.848;2023-05-07T04:39:20;17.40;59.60
2439;DHT22;14509;47.992;7.848;2023-05-07T04:41:25;17.60;59.60
2439;DHT22;14509;47.992;7.848;2023-05-07T04:43:27;17.40;59.30
2439;DHT22;14509;47.992;7.848;2023-05-07T04:45:30;18.10;59.70
2439;DHT22;14509;47.992;7.848;2023-05-07T04:47:33;17.50;59.00
2439;DHT22;14509;47.992;7.848;2023-05-07T04:49:37;17.60;59.10
2439;DHT22;14509;47.992;7.848;2023-05-07T04:51:40;18.00;59.40
2439;DHT22;14509;47.992;7.848;2023-05-07T04:53:44;17.70;58.80
2439;DHT22;14509;47.992;7.848;2023-05-07T04:55:46;17.70;58.50
2439;DHT22;14509;47.992;7.848;2023-05-07T04:57:52;17.80;58.50
2439;DHT22;14509;47.992;7.848;2023-05-07T04:59:55;18.60;59.20
2439;DHT22;14509;47.992;7.848;2023-05-07T05:01:57;17.90;58.40
2439;DHT22;14509;47.992;7.848;2023-05-07T05:03:59;18.10;58.30
2439;DHT22;14509;47.992;7.848;2023-05-07T05:06:01;18.10;58.10
2439;DHT22;14509;47.992;7.848;2023-05-07T05:08:07;18.30;58.00
2439;DHT22;14509;47.992;7.848;2023-05-07T05:10:13;18.30;57.80
2439;DHT22;14509;47.992;7.848;2023-05-07T05:12:15;18.40;57.60
2439;DHT22;14509;47.992;7.848;2023-05-07T05:14:20;18.60;57.60
2439;DHT22;14509;47.992;7.848;2023-05-07T05:16:22;18.70;57.90
2439;DHT22;14509;47.992;7.848;2023-05-07T05:18:24;19.20;57.40
2439;DHT22;14509;47.992;7.848;2023-05-07T05:20:26;19.00;56.90
2439;DHT22;14509;47.992;7.848;2023-05-07T05:22:28;19.10;56.60
2439;DHT22;14509;47.992;7.848;2023-05-07T05:24:33;19.40;56.50
2439;DHT22;14509;47.992;7.848;2023-05-07T05:26:36;19.30;56.00
2439;DHT22;14509;47.992;7.848;2023-05-07T05:28:39;19.40;56.30
2439;DHT22;14509;47.992;7.848;2023-05-07T05:30:42;19.50;55.40
2439;DHT22;14509;47.992;7.848;2023-05-07T05:32:44;19.60;55.10
2439;DHT22;14509;47.992;7.848;2023-05-07T05:34:47;19.60;54.90
2439;DHT22;14509;47.992;7.848;2023-05-07T05:36:49;19.70;54.80
2439;DHT22;14509;47.992;7.848;2023-05-07T05:38:51;19.80;54.60
2439;DHT22;14509;47.992;7.848;2023-05-07T05:40:53;19.90;54.40
2439;DHT22;14509;47.992;7.848;2023-05-07T05:42:55;20.00;54.20
2439;DHT22;14509;47.992;7.848;2023-05-07T05:44:58;20.20;54.10
2439;DHT22;14509;47.992;7.848;2023-05-07T05:47:04;20.20;53.50
2439;DHT22;14509;47.992;7.848;2023-05-07T05:49:07;20.30;53.30
2439;DHT22;14509;47.992;7.848;2023-05-07T05:51:09;20.40;53.10
2439;DHT22;14509;47.992;7.848;2023-05-07T05:53:11;20.60;53.20
2439;DHT22;14509;47.992;7.848;2023-05-07T05:55:14;20.70;53.00
2439;DHT22;14509;47.992;7.848;2023-05-07T05:57:16;20.70;52.80
2439;DHT22;14509;47.992;7.848;2023-05-07T05:59:19;20.90;52.80
2439;DHT22;14509;47.992;7.848;2023-05-07T06:01:21;21.00;52.60
2439;DHT22;14509;47.992;7.848;2023-05-07T06:03:27;21.20;52.40
2439;DHT22;14509;47.992;7.848;2023-05-07T06:05:30;21.40;52.10
2439;DHT22;14509;47.992;7.848;2023-05-07T06:07:32;21.60;51.60
2439;DHT22;14509;47.992;7.848;2023-05-07T06:09:35;21.90;51.20
2439;DHT22;14509;47.992;7.848;2023-05-07T06:11:37;22.10;50.30
2439;DHT22;14509;47.992;7.848;2023-05-07T06:13:41;22.20;49.70
2439;DHT22;14509;47.992;7.848;2023-05-07T06:15:43;22.40;49.40
2439;DHT22;14509;47.992;7.848;2023-05-07T06:17:47;22.50;49.30
2439;DHT22;14509;47.992;7.848;2023-05-07T06:19:52;22.60;49.10
2439;DHT22;14509;47.992;7.848;2023-05-07T06:21:55;22.70;48.70
2439;DHT22;14509;47.992;7.848;2023-05-07T06:23:58;22.80;48.60
2439;DHT22;14509;47.992;7.848;2023-05-07T06:26:00;22.90;48.30
2439;DHT22;14509;47.992;7.848;2023-05-07T06:28:08;22.90;48.20
2439;DHT22;14509;47.992;7.848;2023-05-07T06:30:14;22.90;48.10
2439;DHT22;14509;47.992;7.848;2023-05-07T06:32:16;22.90;48.20
2439;DHT22;14509;47.992;7.848;2023-05-07T06:34:20;22.90;48.30
2439;DHT22;14509;47.992;7.848;2023-05-07T06:36:23;22.90;48.30
2439;DHT22;14509;47.992;7.848;2023-05-07T06:38:29;22.80;48.30
2439;DHT22;14509;47.992;7.848;2023-05-07T06:40:31;22.80;48.30
2439;DHT22;14509;47.992;7.848;2023-05-07T06:42:35;22.70;48.50
2439;DHT22;14509;47.992;7.848;2023-05-07T06:44:56;22.70;48.70
2439;DHT22;14509;47.992;7.848;2023-05-07T06:46:58;22.60;48.70
2439;DHT22;14509;47.992;7.848;2023-05-07T06:49:00;22.70;49.10
2439;DHT22;14509;47.992;7.848;2023-05-07T06:51:03;22.70;49.00
2439;DHT22;14509;47.992;7.848;2023-05-07T06:53:08;22.70;48.70
2439;DHT22;14509;47.992;7.848;2023-05-07T06:55:11;22.80;48.50
2439;DHT22;14509;47.992;7.848;2023-05-07T06:57:14;22.90;48.50
2439;DHT22;14509;47.992;7.848;2023-05-07T06:59:26;23.00;48.10
2439;DHT22;14509;47.992;7.848;2023-05-07T07:01:29;23.10;48.70
2439;DHT22;14509;47.992;7.848;2023-05-07T07:03:31;23.10;47.90
2439;DHT22;14509;47.992;7.848;2023-05-07T07:05:33;23.10;47.80
2439;DHT22;14509;47.992;7.848;2023-05-07T07:07:37;23.10;47.80
2439;DHT22;14509;47.992;7.848;2023-05-07T07:09:41;23.20;47.90
2439;DHT22;14509;47.992;7.848;2023-05-07T07:11:44;23.20;47.80
2439;DHT22;14509;47.992;7.848;2023-05-07T07:13:47;23.20;47.80
2439;DHT22;14509;47.992;7.848;2023-05-07T07:15:49;23.30;47.70
2439;DHT22;14509;47.992;7.848;2023-05-07T07:17:52;23.30;47.40
2439;DHT22;14509;47.992;7.848;2023-05-07T07:19:54;23.40;47.20
2439;DHT22;14509;47.992;7.848;2023-05-07T07:21:57;23.50;47.40
2439;DHT22;14509;47.992;7.848;2023-05-07T07:23:59;23.60;47.30
2439;DHT22;14509;47.992;7.848;2023-05-07T07:26:04;23.70;47.10
2439;DHT22;14509;47.992;7.848;2023-05-07T07:28:07;23.80;46.70
2439;DHT22;14509;47.992;7.848;2023-05-07T07:30:12;23.80;46.30
2439;DHT22;14509;47.992;7.848;2023-05-07T07:32:16;23.90;46.10
2439;DHT22;14509;47.992;7.848;2023-05-07T07:34:19;24.00;46.20
2439;DHT22;14509;47.992;7.848;2023-05-07T07:36:22;24.00;46.20
2439;DHT22;14509;47.992;7.848;2023-05-07T09:43:42;27.70;40.30
2439;DHT22;14509;47.992;7.848;2023-05-07T09:45:47;27.80;39.70
2439;DHT22;14509;47.992;7.848;2023-05-07T09:47:54;27.90;39.70
2439;DHT22;14509;47.992;7.848;2023-05-07T09:49:59;28.10;39.70
2439;DHT22;14509;47.992;7.848;2023-05-07T09:52:06;28.10;39.60
2439;DHT22;14509;47.992;7.848;2023-05-07T09:54:12;28.10;39.90
2439;DHT22;14509;47.992;7.848;2023-05-07T09:56:18;28.00;39.60
2439;DHT22;14509;47.992;7.848;2023-05-07T09:58:22;27.90;39.90
2439;DHT22;14509;47.992;7.848;2023-05-07T10:00:28;27.80;39.90
2439;DHT22;14509;47.992;7.848;2023-05-07T10:02:39;27.70;40.20
2439;DHT22;14509;47.992;7.848;2023-05-07T10:04:48;27.80;40.60
2439;DHT22;14509;47.992;7.848;2023-05-07T10:06:55;27.80;40.20
2439;DHT22;14509;47.992;7.848;2023-05-07T10:08:59;27.70;40.00
2439;DHT22;14509;47.992;7.848;2023-05-07T10:11:02;27.60;40.20
2439;DHT22;14509;47.992;7.848;2023-05-07T10:13:05;27.40;40.70
2439;DHT22;14509;47.992;7.848;2023-05-07T10:15:12;27.20;41.50
2439;DHT22;14509;47.992;7.848;2023-05-07T10:17:19;26.80;43.00
2439;DHT22;14509;47.992;7.848;2023-05-07T10:19:23;26.50;43.10
2439;DHT22;14509;47.992;7.848;2023-05-07T10:21:30;26.20;44.30
2439;DHT22;14509;47.992;7.848;2023-05-07T10:23:35;26.00;47.10
2439;DHT22;14509;47.992;7.848;2023-05-07T10:25:39;25.60;47.80
2439;DHT22;14509;47.992;7.848;2023-05-07T10:27:50;25.20;50.10
2439;DHT22;14509;47.992;7.848;2023-05-07T10:30:01;24.70;51.60
2439;DHT22;14509;47.992;7.848;2023-05-07T10:32:27;24.10;53.30
2439;DHT22;14509;47.992;7.848;2023-05-07T10:34:37;23.50;55.10
2439;DHT22;14509;47.992;7.848;2023-05-07T10:36:40;23.00;56.60
2439;DHT22;14509;47.992;7.848;2023-05-07T10:38:44;22.70;58.00
2439;DHT22;14509;47.992;7.848;2023-05-07T10:40:47;22.60;59.00
2439;DHT22;14509;47.992;7.848;2023-05-07T10:42:55;22.40;59.80
2439;DHT22;14509;47.992;7.848;2023-05-07T10:45:11;22.30;59.70
2439;DHT22;14509;47.992;7.848;2023-05-07T10:47:16;22.20;60.20
2439;DHT22;14509;47.992;7.848;2023-05-07T10:49:23;22.10;60.50
2439;DHT22;14509;47.992;7.848;2023-05-07T10:51:33;22.00;60.90
2439;DHT22;14509;47.992;7.848;2023-05-07T10:53:43;22.00;60.40
2439;DHT22;14509;47.992;7.848;2023-05-07T10:58:31;22.10;62.00
2439;DHT22;14509;47.992;7.848;2023-05-07T11:00:48;22.50;62.20
2439;DHT22;14509;47.992;7.848;2023-05-07T11:03:06;22.50;61.60
2439;DHT22;14509;47.992;7.848;2023-05-07T11:05:20;22.80;61.10
2439;DHT22;14509;47.992;7.848;2023-05-07T11:07:30;23.00;59.90
2439;DHT22;14509;47.992;7.848;2023-05-07T11:10:00;23.20;59.30
2439;DHT22;14509;47.992;7.848;2023-05-07T11:12:54;23.60;59.40
2439;DHT22;14509;47.992;7.848;2023-05-07T11:15:05;24.10;58.50
2439;DHT22;14509;47.992;7.848;2023-05-07T11:17:10;24.60;56.60
2439;DHT22;14509;47.992;7.848;2023-05-07T11:19:13;25.20;55.10
2439;DHT22;14509;47.992;7.848;2023-05-07T11:21:37;25.70;53.80
2439;DHT22;14509;47.992;7.848;2023-05-07T11:24:02;26.40;51.20
2439;DHT22;14509;47.992;7.848;2023-05-07T11:26:15;27.10;49.60
2439;DHT22;14509;47.992;7.848;2023-05-07T11:28:19;27.60;46.60
2439;DHT22;14509;47.992;7.848;2023-05-07T11:30:30;28.00;45.50
2439;DHT22;14509;47.992;7.848;2023-05-07T11:32:33;28.30;44.70
2439;DHT22;14509;47.992;7.848;2023-05-07T11:34:36;28.70;43.80
2439;DHT22;14509;47.992;7.848;2023-05-07T11:36:43;29.10;41.40
2439;DHT22;14509;47.992;7.848;2023-05-07T11:38:57;29.50;40.20
2439;DHT22;14509;47.992;7.848;2023-05-07T11:40:59;29.80;39.40
2439;DHT22;14509;47.992;7.848;2023-05-07T11:43:10;30.00;40.00
2439;DHT22;14509;47.992;7.848;2023-05-07T11:45:23;30.20;39.70
2439;DHT22;14509;47.992;7.848;2023-05-07T11:47:25;30.30;39.50
2439;DHT22;14509;47.992;7.848;2023-05-07T11:49:27;30.40;39.20
2439;DHT22;14509;47.992;7.848;2023-05-07T11:51:30;30.50;38.80
2439;DHT22;14509;47.992;7.848;2023-05-07T11:53:37;30.60;38.50
2439;DHT22;14509;47.992;7.848;2023-05-07T11:55:39;30.60;38.20
2439;DHT22;14509;47.992;7.848;2023-05-07T11:57:42;30.50;37.70
2439;DHT22;14509;47.992;7.848;2023-05-07T11:59:44;30.50;37.90
2439;DHT22;14509;47.992;7.848;2023-05-07T12:01:48;30.40;38.20
2439;DHT22;14509;47.992;7.848;2023-05-07T12:03:50;30.40;37.80
2439;DHT22;14509;47.992;7.848;2023-05-07T12:05:52;30.30;38.40
2439;DHT22;14509;47.992;7.848;2023-05-07T12:07:56;30.20;38.80
2439;DHT22;14509;47.992;7.848;2023-05-07T12:10:04;30.10;38.90
2439;DHT22;14509;47.992;7.848;2023-05-07T12:12:07;29.90;38.60
2439;DHT22;14509;47.992;7.848;2023-05-07T12:14:09;29.90;38.80
2439;DHT22;14509;47.992;7.848;2023-05-07T12:16:11;29.80;39.30
2439;DHT22;14509;47.992;7.848;2023-05-07T12:18:14;29.80;39.40
2439;DHT22;14509;47.992;7.848;2023-05-07T12:20:17;30.00;39.30
2439;DHT22;14509;47.992;7.848;2023-05-07T12:22:19;30.20;38.50
2439;DHT22;14509;47.992;7.848;2023-05-07T12:24:21;30.40;38.30
2439;DHT22;14509;47.992;7.848;2023-05-07T12:26:25;30.70;38.20
2439;DHT22;14509;47.992;7.848;2023-05-07T12:28:27;30.90;37.90
2439;DHT22;14509;47.992;7.848;2023-05-07T12:30:31;31.10;37.20
2439;DHT22;14509;47.992;7.848;2023-05-07T12:32:34;31.20;36.90
2439;DHT22;14509;47.992;7.848;2023-05-07T12:34:38;31.30;36.90
2439;DHT22;14509;47.992;7.848;2023-05-07T12:36:40;31.30;37.20
2439;DHT22;14509;47.992;7.848;2023-05-07T12:38:43;31.20;36.10
2439;DHT22;14509;47.992;7.848;2023-05-07T12:40:46;31.20;36.30
2439;DHT22;14509;47.992;7.848;2023-05-07T12:42:54;31.10;36.70
2439;DHT22;14509;47.992;7.848;2023-05-07T12:44:56;31.00;35.60
2439;DHT22;14509;47.992;7.848;2023-05-07T12:47:07;30.90;36.00
2439;DHT22;14509;47.992;7.848;2023-05-07T12:49:09;30.60;36.40
2439;DHT22;14509;47.992;7.848;2023-05-07T12:51:11;30.30;36.80
2439;DHT22;14509;47.992;7.848;2023-05-07T12:53:15;30.10;37.50
2439;DHT22;14509;47.992;7.848;2023-05-07T12:55:17;29.90;37.60
2439;DHT22;14509;47.992;7.848;2023-05-07T12:57:20;29.80;37.30
2439;DHT22;14509;47.992;7.848;2023-05-07T12:59:32;29.70;37.90
2439;DHT22;14509;47.992;7.848;2023-05-07T13:01:36;29.60;38.60
2439;DHT22;14509;47.992;7.848;2023-05-07T13:03:39;29.60;38.50
2439;DHT22;14509;47.992;7.848;2023-05-07T13:05:41;29.70;38.10
2439;DHT22;14509;47.992;7.848;2023-05-07T13:07:52;29.70;37.50
2439;DHT22;14509;47.992;7.848;2023-05-07T13:09:55;29.80;38.00
2439;DHT22;14509;47.992;7.848;2023-05-07T13:11:58;29.90;38.00
2439;DHT22;14509;47.992;7.848;2023-05-07T13:14:02;29.80;37.50
2439;DHT22;14509;47.992;7.848;2023-05-07T13:16:08;29.80;37.60
2439;DHT22;14509;47.992;7.848;2023-05-07T13:18:10;29.80;37.40
2439;DHT22;14509;47.992;7.848;2023-05-07T13:20:12;29.70;37.80
2439;DHT22;14509;47.992;7.848;2023-05-07T13:22:14;29.60;37.80
2439;DHT22;14509;47.992;7.848;2023-05-07T13:24:17;29.50;38.00
2439;DHT22;14509;47.992;7.848;2023-05-07T13:26:19;29.30;38.60
2439;DHT22;14509;47.992;7.848;2023-05-07T13:28:23;29.20;39.00
2439;DHT22;14509;47.992;7.848;2023-05-07T13:30:25;29.10;39.30
2439;DHT22;14509;47.992;7.848;2023-05-07T13:32:29;29.00;39.50
2439;DHT22;14509;47.992;7.848;2023-05-07T13:34:31;29.00;39.50
2439;DHT22;14509;47.992;7.848;2023-05-07T13:36:34;28.90;39.60
2439;DHT22;14509;47.992;7.848;2023-05-07T13:38:38;28.80;40.00
2439;DHT22;14509;47.992;7.848;2023-05-07T13:40:40;28.70;40.20
2439;DHT22;14509;47.992;7.848;2023-05-07T13:42:42;28.60;40.00
2439;DHT22;14509;47.992;7.848;2023-05-07T13:44:44;28.60;40.30
2439;DHT22;14509;47.992;7.848;2023-05-07T13:46:46;28.60;40.70
2439;DHT22;14509;47.992;7.848;2023-05-07T13:48:50;28.70;41.20
2439;DHT22;14509;47.992;7.848;2023-05-07T13:50:52;28.80;41.10
2439;DHT22;14509;47.992;7.848;2023-05-07T13:52:54;28.90;40.00
2439;DHT22;14509;47.992;7.848;2023-05-07T13:54:56;29.10;39.90
2439;DHT22;14509;47.992;7.848;2023-05-07T13:56:59;29.30;38.40
2439;DHT22;14509;47.992;7.848;2023-05-07T13:59:02;29.50;39.20
2439;DHT22;14509;47.992;7.848;2023-05-07T14:01:04;29.70;39.20
2439;DHT22;14509;47.992;7.848;2023-05-07T14:03:06;29.90;39.30
2439;DHT22;14509;47.992;7.848;2023-05-07T14:05:10;30.10;37.60
2439;DHT22;14509;47.992;7.848;2023-05-07T14:07:13;30.30;36.90
2439;DHT22;14509;47.992;7.848;2023-05-07T14:09:16;30.30;37.00
2439;DHT22;14509;47.992;7.848;2023-05-07T14:11:18;30.30;37.50
2439;DHT22;14509;47.992;7.848;2023-05-07T14:13:28;30.20;37.30
2439;DHT22;14509;47.992;7.848;2023-05-07T14:15:31;30.20;37.40
2439;DHT22;14509;47.992;7.848;2023-05-07T14:17:33;30.20;37.30
2439;DHT22;14509;47.992;7.848;2023-05-07T14:19:36;30.30;36.50
2439;DHT22;14509;47.992;7.848;2023-05-07T14:21:40;30.40;36.60
2439;DHT22;14509;47.992;7.848;2023-05-07T14:23:43;30.60;36.40
2439;DHT22;14509;47.992;7.848;2023-05-07T14:25:46;30.80;36.40
2439;DHT22;14509;47.992;7.848;2023-05-07T14:27:48;31.00;35.60
2439;DHT22;14509;47.992;7.848;2023-05-07T14:29:53;31.30;35.30
2439;DHT22;14509;47.992;7.848;2023-05-07T14:31:56;31.70;34.90
2439;DHT22;14509;47.992;7.848;2023-05-07T14:34:02;32.10;34.00
2439;DHT22;14509;47.992;7.848;2023-05-07T14:36:04;32.40;33.60
2439;DHT22;14509;47.992;7.848;2023-05-07T14:38:11;32.60;33.20
2439;DHT22;14509;47.992;7.848;2023-05-07T14:40:13;32.80;32.70
2439;DHT22;14509;47.992;7.848;2023-05-07T14:42:16;32.90;32.10
2439;DHT22;14509;47.992;7.848;2023-05-07T14:44:18;33.10;32.10
2439;DHT22;14509;47.992;7.848;2023-05-07T14:46:21;33.40;31.60
2439;DHT22;14509;47.992;7.848;2023-05-07T14:48:24;33.80;30.70
2439;DHT22;14509;47.992;7.848;2023-05-07T14:50:26;34.40;29.90
2439;DHT22;14509;47.992;7.848;2023-05-07T14:52:28;34.90;29.50
2439;DHT22;14509;47.992;7.848;2023-05-07T14:54:33;35.30;28.80
2439;DHT22;14509;47.992;7.848;2023-05-07T14:56:35;35.50;28.60
2439;DHT22;14509;47.992;7.848;2023-05-07T14:58:37;35.70;28.40
2439;DHT22;14509;47.992;7.848;2023-05-07T15:00:40;35.90;26.80
2439;DHT22;14509;47.992;7.848;2023-05-07T15:02:42;36.10;26.40
2439;DHT22;14509;47.992;7.848;2023-05-07T15:04:44;36.20;26.10
2439;DHT22;14509;47.992;7.848;2023-05-07T15:06:47;36.30;25.10
2439;DHT22;14509;47.992;7.848;2023-05-07T15:08:49;36.40;24.90
2439;DHT22;14509;47.992;7.848;2023-05-07T15:10:53;36.50;24.80
2439;DHT22;14509;47.992;7.848;2023-05-07T15:12:55;36.50;24.70
2439;DHT22;14509;47.992;7.848;2023-05-07T15:14:58;36.30;24.90
2439;DHT22;14509;47.992;7.848;2023-05-07T15:17:01;35.70;25.60
2439;DHT22;14509;47.992;7.848;2023-05-07T15:19:03;34.90;26.20
2439;DHT22;14509;47.992;7.848;2023-05-07T15:21:05;34.30;27.00
2439;DHT22;14509;47.992;7.848;2023-05-07T15:23:09;33.70;27.90
2439;DHT22;14509;47.992;7.848;2023-05-07T15:25:13;33.20;28.30
2439;DHT22;14509;47.992;7.848;2023-05-07T15:27:17;32.80;28.60
2439;DHT22;14509;47.992;7.848;2023-05-07T15:29:19;32.60;29.00
2439;DHT22;14509;47.992;7.848;2023-05-07T15:31:21;32.30;28.60
2439;DHT22;14509;47.992;7.848;2023-05-07T15:33:24;32.10;29.20
2439;DHT22;14509;47.992;7.848;2023-05-07T15:35:26;31.90;29.70
2439;DHT22;14509;47.992;7.848;2023-05-07T15:37:28;31.80;29.90